Time;durP1;ratioP1;P1;durP2;ratioP2;P2;SDS_P1;SDS_P2;PMS_P1;PMS_P2;Temp;Humidity;BMP_temperature;BMP_pressure;BME280_temperature;BME280_humidity;BME280_pressure;Samples;Min_cycle;Max_cycle;Signal;HPM_P1;HPM_P2
2021/04/07 07:14:38;;;;;;;3.67;1.00;;;;;;;18.86;50.14;102478.84;5372622;23;20089;-73
2021/04/07 07:17:04;;;;;;;4.78;0.98;;;;;;;18.87;50.38;102477.03;4944210;29;20075;-74
2021/04/07 07:19:32;;;;;;;5.00;1.23;;;;;;;18.87;50.63;102477.84;4929982;29;20040;-75
2021/04/07 07:21:58;;;;;;;1.85;0.77;;;;;;;18.85;50.83;102478.00;4932018;29;20036;-73
2021/04/07 07:24:39;;;;;;;1.63;0.80;;;;;;;18.84;50.65;102476.34;4923897;29;20107;-73
2021/04/07 07:27:07;;;;;;;5.07;0.98;;;;;;;18.84;50.90;102473.69;4915141;29;20047;-72
2021/04/07 07:29:35;;;;;;;3.58;1.05;;;;;;;18.84;50.62;102478.16;4925005;29;20028;-72
2021/04/07 07:32:30;;;;;;;5.68;1.02;;;;;;;18.82;50.53;102485.47;4922983;29;20044;-72
2021/04/07 07:35:04;;;;;;;5.38;1.00;;;;;;;18.82;50.26;102482.81;4918685;29;20044;-73
2021/04/07 07:37:30;;;;;;;4.05;0.90;;;;;;;18.82;50.50;102486.28;4933805;29;20101;-72
2021/04/07 07:39:55;;;;;;;7.07;1.58;;;;;;;18.82;50.38;102482.81;4929861;29;20056;-73
2021/04/07 07:42:21;;;;;;;11.20;2.38;;;;;;;18.79;50.49;102483.13;4914807;29;20031;-73
2021/04/07 07:44:46;;;;;;;13.52;2.70;;;;;;;18.78;50.16;102484.94;4931158;29;20031;-70
2021/04/07 07:49:40;;;;;;;14.05;2.83;;;;;;;18.76;50.48;102491.38;4930754;29;20043;-71
2021/04/07 07:52:06;;;;;;;16.52;2.85;;;;;;;18.74;50.38;102485.38;4933208;29;20035;-74
2021/04/07 07:54:31;;;;;;;10.02;2.65;;;;;;;18.73;49.92;102489.84;4930043;29;20036;-72
2021/04/07 07:56:57;;;;;;;15.57;3.22;;;;;;;18.73;50.12;102483.69;4931663;29;20090;-71
2021/04/07 07:59:26;;;;;;;17.70;3.20;;;;;;;18.69;49.51;102480.50;4908282;29;20056;-72
2021/04/07 08:01:51;;;;;;;10.30;2.78;;;;;;;18.69;49.90;102471.69;4923301;29;20102;-72
2021/04/07 08:04:18;;;;;;;17.00;2.85;;;;;;;18.68;49.76;102467.38;4932900;29;20044;-71
2021/04/07 08:06:44;;;;;;;10.55;2.33;;;;;;;18.66;49.63;102470.19;4932960;29;20047;-72
2021/04/07 08:09:10;;;;;;;10.82;3.15;;;;;;;18.65;49.43;102473.81;4928493;29;20027;-71
2021/04/07 08:11:36;;;;;;;14.15;3.08;;;;;;;18.64;49.01;102479.28;4930586;29;20086;-72
2021/04/07 08:14:01;;;;;;;7.82;2.28;;;;;;;18.62;48.66;102481.22;4927924;29;21225;-72
2021/04/07 08:16:28;;;;;;;13.48;2.42;;;;;;;18.54;47.73;102493.44;4927302;29;20147;-72
2021/04/07 08:18:54;;;;;;;6.80;1.67;;;;;;;18.47;46.97;102487.06;4928311;29;20058;-72
2021/04/07 08:21:21;;;;;;;5.80;1.30;;;;;;;18.39;45.91;102489.59;4928811;29;20044;-72
2021/04/07 08:23:53;;;;;;;8.98;2.22;;;;;;;18.32;44.88;102487.69;4928395;29;20032;-72
2021/04/07 08:26:22;;;;;;;6.85;2.10;;;;;;;18.21;44.32;102492.22;4929591;29;20062;-72
2021/04/07 08:28:49;;;;;;;2.65;1.50;;;;;;;18.13;43.88;102489.44;4927551;29;20103;-72
2021/04/07 08:31:16;;;;;;;4.32;1.60;;;;;;;18.04;43.02;102494.81;4917878;29;20039;-72
2021/04/07 08:33:47;;;;;;;5.90;1.70;;;;;;;17.94;42.39;102493.00;4926294;29;20443;-72
2021/04/07 08:36:24;;;;;;;4.38;1.40;;;;;;;17.88;42.22;102487.47;4929443;29;20111;-72
2021/04/07 08:39:04;;;;;;;3.78;1.67;;;;;;;17.78;41.76;102495.44;4924040;29;20479;-72
2021/04/07 08:41:30;;;;;;;4.22;1.48;;;;;;;17.71;41.79;102489.03;4926907;29;20027;-73
2021/04/07 08:43:56;;;;;;;5.75;1.40;;;;;;;17.62;41.54;102490.69;4931287;29;20130;-72
2021/04/07 08:46:27;;;;;;;7.40;1.45;;;;;;;17.59;41.54;102485.66;4916333;29;20427;-72
2021/04/07 08:48:54;;;;;;;3.15;1.35;;;;;;;17.54;41.18;102495.06;4931080;29;20032;-73
2021/04/07 08:51:22;;;;;;;5.18;1.45;;;;;;;17.51;40.88;102497.97;4918424;29;20059;-72
2021/04/07 08:53:50;;;;;;;4.03;1.20;;;;;;;17.48;40.95;102496.44;4924660;29;20124;-72
2021/04/07 08:56:23;;;;;;;4.10;1.40;;;;;;;17.46;40.74;102494.91;4924101;29;20046;-72
2021/04/07 08:58:56;;;;;;;6.70;1.40;;;;;;;17.44;40.58;102486.25;4930106;29;20067;-72
2021/04/07 09:01:25;;;;;;;4.40;1.50;;;;;;;17.40;40.68;102493.66;4919197;29;20075;-72
2021/04/07 09:04:09;;;;;;;3.05;1.23;;;;;;;17.33;40.36;102481.94;4930173;29;20031;-72
2021/04/07 09:07:00;;;;;;;5.53;1.20;;;;;;;17.26;40.57;102472.88;4930226;29;20177;-72
2021/04/07 09:09:26;;;;;;;3.55;1.40;;;;;;;17.21;40.27;102481.25;4920250;29;20082;-72
2021/04/07 09:11:53;;;;;;;3.03;1.20;;;;;;;17.18;40.13;102483.34;4917093;29;20073;-72
2021/04/07 09:14:20;;;;;;;4.82;1.17;;;;;;;17.14;40.25;102485.44;4924108;29;20047;-72
2021/04/07 09:16:46;;;;;;;3.15;1.30;;;;;;;17.13;40.02;102481.13;4910294;29;20051;-72
2021/04/07 09:19:20;;;;;;;2.03;1.13;;;;;;;17.09;40.10;102482.38;4918541;29;20395;-72
2021/04/07 09:21:54;;;;;;;5.85;1.35;;;;;;;17.08;40.13;102480.69;4913834;29;20398;-72
2021/04/07 09:24:20;;;;;;;5.80;1.67;;;;;;;17.08;40.03;102487.81;4918441;29;20051;-72
2021/04/07 09:26:47;;;;;;;3.60;1.42;;;;;;;17.04;40.27;102474.84;4919381;29;20068;-72
2021/04/07 09:29:15;;;;;;;3.78;1.30;;;;;;;17.02;40.12;102482.06;4928251;29;20027;-72
2021/04/07 09:31:41;;;;;;;2.95;1.63;;;;;;;16.99;39.98;102474.41;4920121;29;20500;-72
2021/04/07 09:34:10;;;;;;;5.18;1.20;;;;;;;16.97;39.86;102484.31;4916427;29;20048;-72
2021/04/07 09:36:38;;;;;;;3.55;1.25;;;;;;;16.96;40.00;102479.16;4923938;29;20044;-72
2021/04/07 09:39:34;;;;;;;5.05;1.10;;;;;;;16.92;40.03;102477.78;4904321;29;20501;-72
2021/04/07 09:41:59;;;;;;;2.97;1.27;;;;;;;16.88;39.89;102484.28;4902973;29;20179;-72
2021/04/07 09:44:25;;;;;;;4.78;1.40;;;;;;;16.87;39.80;102490.56;4923213;29;20111;-72
2021/04/07 09:46:53;;;;;;;5.03;1.50;;;;;;;16.84;39.80;102488.22;4915801;29;20052;-72
2021/04/07 09:49:19;;;;;;;3.97;1.40;;;;;;;16.80;39.63;102482.34;4920733;29;20044;-72
2021/04/07 09:51:48;;;;;;;2.50;1.17;;;;;;;16.78;39.48;102486.97;4909870;29;20039;-72
2021/04/07 09:54:29;;;;;;;4.53;1.23;;;;;;;16.76;39.67;102484.44;4919960;29;20058;-72
2021/04/07 09:57:01;;;;;;;5.05;1.30;;;;;;;16.77;39.43;102483.47;4930244;29;20028;-72
2021/04/07 09:59:50;;;;;;;4.65;1.20;;;;;;;16.76;39.30;102475.66;4904131;29;20055;-72
2021/04/07 10:02:26;;;;;;;3.97;1.27;;;;;;;16.72;39.38;102479.53;4906018;29;20040;-72
2021/04/07 10:04:53;;;;;;;3.42;1.10;;;;;;;16.71;39.29;102480.50;4924554;29;20048;-72
2021/04/07 10:07:21;;;;;;;5.65;1.40;;;;;;;16.69;39.08;102477.16;4925387;29;20043;-72
2021/04/07 10:09:48;;;;;;;4.22;1.02;;;;;;;16.68;39.13;102478.97;4922380;29;20046;-72
2021/04/07 10:12:15;;;;;;;3.85;1.25;;;;;;;16.68;39.25;102471.03;4925774;29;20032;-72
2021/04/07 10:14:49;;;;;;;5.07;1.30;;;;;;;16.66;38.88;102475.59;4920118;29;20078;-72
2021/04/07 10:17:17;;;;;;;3.83;1.05;;;;;;;16.64;38.99;102472.25;4916080;29;20086;-72
2021/04/07 10:19:43;;;;;;;5.20;1.38;;;;;;;16.62;38.77;102471.56;4930856;29;20035;-72
2021/04/07 10:22:17;;;;;;;3.85;1.38;;;;;;;16.60;38.59;102465.56;4929179;29;20043;-72
2021/04/07 10:24:45;;;;;;;3.93;1.50;;;;;;;16.58;38.46;102471.97;4931966;29;20054;-72
2021/04/07 10:27:18;;;;;;;5.35;1.10;;;;;;;16.54;38.62;102462.59;4931215;29;20602;-72
2021/04/07 10:29:43;;;;;;;5.28;1.65;;;;;;;16.53;38.33;102468.88;4933027;29;20392;-72
2021/04/07 10:32:14;;;;;;;5.65;1.10;;;;;;;16.48;38.17;102458.69;4931306;29;20522;-72
2021/04/07 10:34:40;;;;;;;3.67;1.05;;;;;;;16.47;38.01;102468.44;4919727;29;20043;-72
2021/04/07 10:37:05;;;;;;;3.72;1.10;;;;;;;16.46;37.90;102458.00;4909577;29;20036;-72
2021/04/07 10:39:49;;;;;;;4.53;1.17;;;;;;;16.42;38.00;102460.09;4928104;29;20090;-72
2021/04/07 10:42:16;;;;;;;3.35;1.05;;;;;;;16.42;37.82;102464.53;4933753;29;20489;-72
2021/04/07 10:44:42;;;;;;;4.40;1.17;;;;;;;16.40;37.45;102459.34;4932715;29;20487;-72
2021/04/07 10:47:17;;;;;;;2.47;1.00;;;;;;;16.38;37.17;102460.47;4933091;29;20130;-72
2021/04/07 10:49:52;;;;;;;;;;;;;;;16.32;37.46;102466.31;4932536;29;20082;-71
2021/04/07 10:52:28;;;;;;;3.30;0.82;;;;;;;16.31;37.05;102459.34;4934104;29;19919;-72
2021/04/07 10:54:58;;;;;;;5.57;1.05;;;;;;;16.29;37.29;102456.84;4932791;29;20040;-72
2021/04/07 10:57:35;;;;;;;6.78;1.13;;;;;;;16.27;36.90;102463.25;4933730;29;20061;-72
2021/04/07 11:00:05;;;;;;;3.72;1.02;;;;;;;16.27;37.12;102452.66;4931991;29;20146;-72
2021/04/07 11:02:40;;;;;;;4.00;1.10;;;;;;;16.28;36.79;102456.97;4932144;29;20035;-72
2021/04/07 11:05:10;;;;;;;;;;;;;;;16.27;37.25;102452.66;4900910;29;20039;-71
2021/04/07 11:07:35;;;;;;;2.25;0.85;;;;;;;16.30;37.12;102450.56;4932983;29;20005;-72
2021/04/07 11:10:01;;;;;;;3.97;1.08;;;;;;;16.31;37.13;102444.28;4933704;29;20051;-72
2021/04/07 11:12:26;;;;;;;3.97;1.10;;;;;;;16.32;37.22;102443.31;4931822;29;20047;-72
2021/04/07 11:14:53;;;;;;;3.35;1.15;;;;;;;16.33;36.80;102452.09;4914851;29;20495;-72
2021/04/07 11:17:19;;;;;;;1.85;0.90;;;;;;;16.33;36.90;102452.94;4931289;29;20447;-72
2021/04/07 11:19:46;;;;;;;2.78;0.90;;;;;;;16.34;36.67;102453.78;4933469;29;20062;-72
2021/04/07 11:22:11;;;;;;;5.65;1.20;;;;;;;16.33;36.85;102442.34;4902134;29;20473;-72
2021/04/07 11:24:37;;;;;;;4.13;1.10;;;;;;;16.34;36.54;102445.84;4933520;29;20036;-72
2021/04/07 11:27:06;;;;;;;2.17;1.00;;;;;;;16.32;36.77;102443.31;4931460;29;20043;-72
2021/04/07 11:29:35;;;;;;;3.35;1.00;;;;;;;16.33;36.44;102441.50;4932377;29;20413;-72
2021/04/07 11:32:01;;;;;;;3.65;0.90;;;;;;;16.32;36.30;102442.50;4932615;29;20028;-72
2021/04/07 11:34:32;;;;;;;3.58;1.17;;;;;;;16.31;36.49;102436.34;4931965;29;20075;-72
2021/04/07 11:37:47;;;;;;;5.13;0.77;;;;;;;16.31;36.47;102435.53;4932500;29;20047;-72
2021/04/07 11:39:57;;;;;;;4.28;0.93;;;;;;;16.31;36.24;102433.72;4920334;29;20067;-72
2021/04/07 11:42:29;;;;;;;3.28;1.10;;;;;;;16.31;36.23;102427.56;4921839;29;20497;-71
2021/04/07 11:44:57;;;;;;;5.43;1.10;;;;;;;16.31;36.30;102427.56;4918124;29;20035;-72
2021/04/07 11:47:22;;;;;;;3.65;1.10;;;;;;;16.30;36.44;102425.91;4923611;29;20044;-71
2021/04/07 11:49:48;;;;;;;2.53;0.80;;;;;;;16.29;36.23;102425.06;4913772;29;20103;-72
2021/04/07 11:52:14;;;;;;;4.80;0.90;;;;;;;16.29;35.99;102424.22;4932048;29;20050;-72
2021/04/07 11:54:39;;;;;;;2.65;0.68;;;;;;;16.28;36.26;102422.56;4903174;29;20040;-72
2021/04/07 11:57:05;;;;;;;2.75;0.98;;;;;;;16.28;36.15;102422.56;4925228;29;20028;-72
2021/04/07 11:59:31;;;;;;;3.85;0.88;;;;;;;16.27;35.75;102420.88;4912468;29;20036;-71
2021/04/07 12:02:01;;;;;;;2.65;0.80;;;;;;;16.25;35.86;102428.09;4924986;29;20145;-72
2021/04/07 12:04:28;;;;;;;4.80;1.00;;;;;;;16.24;36.01;102424.63;4919737;29;20039;-72
2021/04/07 12:06:56;;;;;;;3.03;0.80;;;;;;;16.23;35.75;102420.28;4930884;29;20031;-72
2021/04/07 12:09:22;;;;;;;2.33;0.70;;;;;;;16.24;35.87;102416.66;4925267;29;20036;-71
2021/04/07 12:11:48;;;;;;;2.13;0.80;;;;;;;16.24;36.01;102415.84;4924914;29;20078;-71
2021/04/07 12:14:14;;;;;;;4.07;1.05;;;;;;;16.22;35.91;102415.97;4918525;29;20043;-70
2021/04/07 12:16:40;;;;;;;3.72;1.00;;;;;;;16.23;35.74;102411.50;4930509;29;20067;-71
2021/04/07 12:19:07;;;;;;;4.28;0.80;;;;;;;16.21;35.73;102413.47;4903247;29;20106;-71
2021/04/07 12:21:32;;;;;;;4.00;0.80;;;;;;;16.18;35.61;102415.41;4931237;29;20039;-72
2021/04/07 12:23:58;;;;;;;3.13;0.70;;;;;;;16.16;35.85;102412.06;4931055;29;20333;-72
2021/04/07 12:26:23;;;;;;;5.72;0.88;;;;;;;16.16;35.67;102404.13;4932087;29;20063;-71
2021/04/07 12:28:49;;;;;;;3.03;0.90;;;;;;;16.16;35.74;102408.56;4918389;29;20048;-71
2021/04/07 12:31:18;;;;;;;6.07;0.95;;;;;;;16.16;35.98;102413.88;4930467;29;20394;-71
2021/04/07 12:34:17;;;;;;;4.53;1.10;;;;;;;16.15;36.06;102410.38;4921534;29;20032;-71
2021/04/07 12:36:35;;;;;;;2.92;1.38;;;;;;;16.15;35.76;102407.75;4926823;29;20110;-71
2021/04/07 12:39:03;;;;;;;4.07;1.00;;;;;;;16.15;35.98;102404.25;4926753;29;20479;-71
2021/04/07 12:41:53;;;;;;;9.85;1.13;;;;;;;16.14;35.86;102400.78;4930905;29;20043;-71
2021/04/07 12:44:18;;;;;;;3.17;1.00;;;;;;;16.14;36.01;102405.22;4931313;29;20036;-72
2021/04/07 12:46:44;;;;;;;2.83;0.90;;;;;;;16.13;35.91;102403.56;4930076;29;20039;-72
2021/04/07 12:49:10;;;;;;;2.15;0.73;;;;;;;16.13;36.17;102400.91;4930589;29;20111;-71
2021/04/07 12:51:35;;;;;;;2.78;0.90;;;;;;;16.14;36.25;102395.47;4926481;29;20415;-71
2021/04/07 12:54:01;;;;;;;2.97;0.90;;;;;;;16.15;35.92;102398.97;4927025;29;20028;-71
2021/04/07 12:56:28;;;;;;;4.18;1.35;;;;;;;16.15;36.02;102396.31;4912693;29;20063;-71
2021/04/07 12:58:53;;;;;;;4.80;1.10;;;;;;;16.15;36.22;102391.84;4930599;29;20027;-72
2021/04/07 13:01:19;;;;;;;2.75;0.90;;;;;;;16.15;36.18;102391.84;4924838;29;20040;-71
2021/04/07 13:03:45;;;;;;;4.22;1.20;;;;;;;16.14;36.25;102390.19;4927988;29;20115;-72
2021/04/07 13:06:11;;;;;;;4.65;0.85;;;;;;;16.15;36.27;102385.72;4930527;29;20046;-71
2021/04/07 13:08:36;;;;;;;4.72;1.00;;;;;;;16.15;36.28;102380.44;4926059;29;20039;-71
2021/04/07 13:11:02;;;;;;;5.30;0.90;;;;;;;16.14;36.41;102395.47;4926872;29;20091;-71
2021/04/07 13:13:27;;;;;;;7.43;1.10;;;;;;;16.14;36.50;102379.59;4930490;29;20063;-71
2021/04/07 13:15:53;;;;;;;5.18;1.23;;;;;;;16.15;36.50;102381.28;4929396;29;20063;-72
2021/04/07 13:18:20;;;;;;;2.20;0.70;;;;;;;16.15;36.47;102389.22;4924599;29;20059;-71
2021/04/07 13:20:45;;;;;;;3.53;1.10;;;;;;;16.15;36.55;102388.38;4930371;29;20038;-71
2021/04/07 13:23:11;;;;;;;3.40;0.95;;;;;;;16.15;36.44;102391.03;4931078;29;20039;-72
2021/04/07 13:25:37;;;;;;;3.00;0.68;;;;;;;16.15;36.58;102385.72;4929843;29;20032;-72
2021/04/07 13:28:02;;;;;;;2.75;0.77;;;;;;;16.14;36.45;102386.69;4929987;29;20043;-72
2021/04/07 13:30:44;;;;;;;5.32;1.13;;;;;;;16.13;36.44;102392.97;4899072;29;20045;-71
2021/04/07 13:33:16;;;;;;;4.95;1.15;;;;;;;16.12;36.60;102386.84;4930021;29;20055;-71
2021/04/07 13:43:07;;;;;;;3.28;1.17;;;;;;;16.10;36.85;102380.84;4899968;29;20040;-71
2021/04/07 13:45:34;;;;;;;3.13;1.20;;;;;;;16.11;36.59;102379.88;4923020;29;20119;-71
2021/04/07 13:48:26;;;;;;;3.95;1.33;;;;;;;16.11;36.88;102374.56;4907093;29;20414;-71
2021/04/07 13:50:48;;;;;;;3.90;1.10;;;;;;;16.11;36.66;102371.94;4920487;29;20507;-71
2021/04/07 13:53:17;;;;;;;2.88;1.10;;;;;;;16.12;36.90;102364.81;4929362;29;20046;-72
2021/04/07 13:55:49;;;;;;;3.40;0.85;;;;;;;16.12;37.04;102363.00;4923712;29;20028;-71
2021/04/07 13:58:14;;;;;;;3.53;1.00;;;;;;;16.12;37.20;102370.97;4924433;29;20091;-71
2021/04/07 14:00:42;;;;;;;2.40;0.93;;;;;;;16.11;36.89;102373.75;4920430;29;20036;-72
2021/04/07 14:03:07;;;;;;;2.20;0.80;;;;;;;16.09;36.84;102363.25;4934509;29;20044;-72
2021/04/07 14:05:33;;;;;;;2.38;0.80;;;;;;;16.09;36.94;102367.72;4928956;29;20043;-71
2021/04/07 14:08:00;;;;;;;1.67;0.90;;;;;;;16.08;36.86;102358.09;4925324;29;20064;-71
2021/04/07 14:10:25;;;;;;;3.97;1.10;;;;;;;16.07;37.11;102353.78;4919592;29;20040;-71
2021/04/07 14:12:57;;;;;;;2.63;0.75;;;;;;;16.08;37.29;102352.81;4926838;29;20139;-71
2021/04/07 14:15:24;;;;;;;2.78;1.10;;;;;;;16.08;37.20;102352.81;4915219;29;20074;-71
2021/04/07 14:17:50;;;;;;;3.30;1.13;;;;;;;16.07;37.37;102357.28;4926985;29;20032;-71
2021/04/07 14:20:16;;;;;;;3.40;1.17;;;;;;;16.08;37.32;102352.81;4928684;29;20058;-71
2021/04/07 14:22:42;;;;;;;3.80;1.00;;;;;;;16.07;37.21;102346.69;4934307;29;20118;-72
2021/04/07 14:25:13;;;;;;;3.08;1.00;;;;;;;16.08;37.15;102348.34;4933192;29;20039;-71
2021/04/07 14:27:40;;;;;;;4.13;1.10;;;;;;;16.09;37.32;102354.47;4934262;29;20047;-71
2021/04/07 14:30:08;;;;;;;3.58;0.98;;;;;;;16.08;37.28;102347.50;4933768;29;20035;-72
2021/04/07 14:32:33;;;;;;;3.92;0.82;;;;;;;16.08;37.40;102352.81;4928424;29;20032;-71
2021/04/07 14:34:59;;;;;;;2.33;0.98;;;;;;;16.08;37.29;102353.66;4919071;29;20569;-71
2021/04/07 14:37:24;;;;;;;3.83;0.85;;;;;;;16.08;37.41;102347.50;4906467;29;20036;-71
2021/04/07 14:39:50;;;;;;;4.03;0.88;;;;;;;16.07;37.38;102345.84;4926904;29;20055;-71
2021/04/07 14:42:16;;;;;;;4.00;0.73;;;;;;;16.08;37.17;102343.06;4915524;29;20040;-71
2021/04/07 14:44:41;;;;;;;4.63;1.05;;;;;;;16.08;37.41;102335.13;4926440;29;20035;-71
2021/04/07 14:47:07;;;;;;;2.20;1.15;;;;;;;16.07;37.44;102336.09;4920055;29;20039;-71
2021/04/07 14:49:32;;;;;;;3.45;1.00;;;;;;;16.07;37.28;102325.50;4913675;29;20123;-71
2021/04/07 14:52:06;;;;;;;2.72;1.10;;;;;;;16.07;37.65;102322.03;4931123;29;20032;-71
2021/04/07 14:54:38;;;;;;;1.53;0.80;;;;;;;16.06;37.51;102329.13;4932567;29;20091;-71
2021/04/07 14:57:04;;;;;;;2.47;0.95;;;;;;;16.06;37.69;102323.00;4933561;29;20443;-71
2021/04/07 14:59:30;;;;;;;1.90;0.80;;;;;;;16.05;37.65;102318.69;4933458;29;20035;-71
2021/04/07 15:01:55;;;;;;;3.25;0.80;;;;;;;16.04;37.63;102312.53;4928873;29;20426;-72
2021/04/07 15:04:20;;;;;;;2.83;1.00;;;;;;;16.05;37.65;102316.03;4923268;29;20403;-71
2021/04/07 15:06:46;;;;;;;2.97;0.90;;;;;;;16.04;37.66;102317.84;4915238;29;20091;-71
2021/04/07 15:09:12;;;;;;;3.35;0.90;;;;;;;16.05;37.91;102316.03;4927474;29;20036;-71
2021/04/07 15:11:37;;;;;;;2.33;0.70;;;;;;;16.06;37.95;102312.41;4925310;29;20039;-71
2021/04/07 15:14:03;;;;;;;2.28;0.90;;;;;;;16.05;37.99;102308.94;4928102;29;20391;-71
2021/04/07 15:16:28;;;;;;;2.70;1.02;;;;;;;16.07;38.10;102311.44;4913787;29;20499;-71
2021/04/07 15:18:54;;;;;;;2.70;0.70;;;;;;;16.07;38.16;102309.63;4929645;29;20500;-71
2021/04/07 15:21:20;;;;;;;2.85;0.90;;;;;;;16.08;38.25;102306.00;4915160;29;20036;-72
2021/04/07 15:23:45;;;;;;;2.08;1.00;;;;;;;16.08;38.28;102305.16;4932749;29;20137;-71
2021/04/07 15:26:18;;;;;;;2.13;0.90;;;;;;;16.06;38.19;102297.34;4932656;29;20095;-71
2021/04/07 15:28:43;;;;;;;3.83;1.08;;;;;;;16.06;38.33;102297.34;4932713;29;20039;-71
2021/04/07 15:31:14;;;;;;;2.17;1.08;;;;;;;16.06;38.74;102299.16;4932734;29;20039;-71
2021/04/07 15:33:46;;;;;;;1.40;0.80;;;;;;;16.04;38.93;102301.97;4924571;29;20131;-71
2021/04/07 15:36:12;;;;;;;3.63;1.42;;;;;;;16.02;38.63;102295.97;4910264;29;20046;-71
2021/04/07 15:38:39;;;;;;;2.90;1.10;;;;;;;16.01;39.14;102304.06;4926365;29;20634;-71
2021/04/07 15:41:06;;;;;;;3.25;1.30;;;;;;;16.00;39.18;102297.91;4925335;29;20106;-72
2021/04/07 15:43:32;;;;;;;2.60;1.15;;;;;;;15.99;39.33;102298.06;4913803;29;20736;-71
2021/04/07 15:45:58;;;;;;;1.67;1.00;;;;;;;15.97;39.58;102290.25;4923571;29;20032;-71
2021/04/07 15:48:25;;;;;;;3.45;1.10;;;;;;;15.96;39.60;102288.59;4917531;29;20040;-71
2021/04/07 15:50:56;;;;;;;2.97;1.38;;;;;;;15.95;39.87;102283.44;4931921;29;20032;-71
2021/04/07 15:53:24;;;;;;;2.13;1.08;;;;;;;15.93;39.81;102280.91;4918367;29;20062;-71
2021/04/07 15:55:50;;;;;;;2.22;1.00;;;;;;;15.92;39.89;102279.22;4932120;29;20094;-70
2021/04/07 15:58:17;;;;;;;3.47;1.40;;;;;;;15.91;40.08;102274.91;4930393;29;20040;-70
2021/04/07 16:00:43;;;;;;;3.25;1.13;;;;;;;15.91;40.34;102266.13;4925663;29;20487;-71
2021/04/07 16:03:10;;;;;;;2.20;1.10;;;;;;;15.91;40.08;102274.06;4913480;29;20062;-70
2021/04/07 16:05:35;;;;;;;2.72;1.40;;;;;;;15.93;40.44;102267.66;4925241;29;20032;-71
2021/04/07 16:08:01;;;;;;;3.47;1.55;;;;;;;15.94;40.22;102266.72;4924325;29;20047;-71
2021/04/07 16:10:27;;;;;;;5.38;1.40;;;;;;;15.97;40.47;102261.16;4931404;29;20039;-71
2021/04/07 16:12:53;;;;;;;2.03;1.10;;;;;;;15.95;40.41;102259.63;4931383;29;20035;-71
2021/04/07 16:15:20;;;;;;;3.17;1.30;;;;;;;15.93;40.44;102261.53;4930533;29;20091;-71
2021/04/07 16:17:46;;;;;;;3.33;1.40;;;;;;;15.94;40.38;102244.69;4932000;29;20028;-72
2021/04/07 16:20:12;;;;;;;3.00;1.35;;;;;;;15.96;40.51;102240.94;4931697;29;20087;-71
2021/04/07 16:22:38;;;;;;;1.95;1.10;;;;;;;15.97;40.57;102242.63;4932056;29;20028;-71
2021/04/07 16:25:08;;;;;;;3.97;1.40;;;;;;;16.01;40.45;102241.38;4931645;29;20493;-71
2021/04/07 16:27:34;;;;;;;3.08;1.25;;;;;;;16.03;40.65;102238.56;4929988;29;20056;-71
2021/04/07 16:29:59;;;;;;;3.55;1.45;;;;;;;16.05;40.59;102240.09;4930816;29;20546;-71
2021/04/07 16:32:25;;;;;;;5.18;1.83;;;;;;;16.04;40.50;102233.13;4932532;29;20038;-71
2021/04/07 16:34:51;;;;;;;3.67;1.70;;;;;;;16.06;40.60;102231.19;4917413;29;20415;-74
2021/04/07 16:37:16;;;;;;;3.08;1.30;;;;;;;16.09;40.91;102224.78;4930878;29;20765;-74
2021/04/07 16:39:42;;;;;;;3.20;1.60;;;;;;;16.12;41.04;102222.72;4935873;29;20035;-73
2021/04/07 16:42:09;;;;;;;3.72;1.40;;;;;;;16.16;41.14;102217.97;4929836;29;20127;-74
2021/04/07 16:44:35;;;;;;;2.92;1.50;;;;;;;16.22;41.38;102216.56;4910280;29;20466;-71
2021/04/07 16:47:00;;;;;;;3.60;1.40;;;;;;;16.27;41.74;102217.00;4925205;29;20059;-73
2021/04/07 16:49:26;;;;;;;18.83;10.45;;;;;;;16.33;42.00;102216.41;4927716;29;20040;-73
2021/04/07 16:51:51;;;;;;;12.43;4.90;;;;;;;16.38;42.41;102216.81;4927437;29;20047;-69
2021/04/07 16:54:17;;;;;;;10.02;3.63;;;;;;;16.43;42.45;102214.59;4908841;29;20043;-72
2021/04/07 16:56:43;;;;;;;8.50;3.05;;;;;;;16.48;42.94;102215.84;4929359;29;20194;-74
2021/04/07 16:59:08;;;;;;;7.68;2.90;;;;;;;16.54;43.44;102217.06;4927965;29;20043;-74
2021/04/07 17:01:34;;;;;;;8.52;2.53;;;;;;;16.61;43.63;102218.19;4920343;29;20039;-78
2021/04/07 17:04:00;;;;;;;8.90;2.40;;;;;;;16.66;43.73;102215.94;4928029;29;20711;-75
2021/04/07 17:06:25;;;;;;;5.25;2.28;;;;;;;16.73;43.94;102214.44;4923965;29;20063;-72
2021/04/07 17:08:51;;;;;;;4.72;2.20;;;;;;;16.79;43.98;102213.00;4926752;29;20035;-73
2021/04/07 17:11:16;;;;;;;7.10;2.30;;;;;;;16.84;44.32;102213.41;4926848;29;20683;-73
2021/04/07 17:13:42;;;;;;;5.63;2.00;;;;;;;16.90;44.71;102210.19;4927482;29;20422;-73
2021/04/07 17:16:08;;;;;;;7.60;2.40;;;;;;;16.96;44.77;102216.72;4915484;29;20052;-70
2021/04/07 17:18:33;;;;;;;7.05;2.50;;;;;;;17.02;45.22;102210.81;4910173;29;20039;-73
2021/04/07 17:20:59;;;;;;;12.70;3.15;;;;;;;17.08;45.25;102218.22;4927215;29;20040;-74
2021/04/07 17:23:25;;;;;;;16.42;3.78;;;;;;;17.15;45.93;102213.16;4928466;29;20040;-73
2021/04/07 17:25:51;;;;;;;14.52;4.03;;;;;;;17.22;46.26;102217.75;4932706;29;20047;-74
2021/04/07 17:28:16;;;;;;;16.33;5.18;;;;;;;17.30;46.39;102215.16;4931057;29;20483;-72
2021/04/07 17:30:42;;;;;;;13.63;3.95;;;;;;;17.39;46.46;102212.63;4927300;29;20040;-72
2021/04/07 17:33:12;;;;;;;13.85;3.47;;;;;;;17.47;46.62;102210.06;4908974;29;20063;-72
2021/04/07 17:35:39;;;;;;;9.73;3.60;;;;;;;17.54;46.31;102208.50;4920588;29;20273;-72
2021/04/07 17:38:09;;;;;;;10.00;3.35;;;;;;;17.60;46.79;102206.06;4916609;29;20054;-72
2021/04/07 17:40:38;;;;;;;8.43;3.13;;;;;;;17.66;46.88;102207.28;4929899;29;20042;-71
2021/04/07 17:43:04;;;;;;;8.73;2.88;;;;;;;17.74;47.25;102211.88;4931813;29;20384;-71
2021/04/07 17:45:30;;;;;;;11.68;2.80;;;;;;;17.79;47.05;102210.44;4911609;29;20468;-71
2021/04/07 17:47:57;;;;;;;9.38;3.05;;;;;;;17.85;47.08;102209.00;4922965;29;20068;-71
2021/04/07 17:50:24;;;;;;;7.20;2.90;;;;;;;17.90;47.13;102204.91;4922643;29;20039;-72
2021/04/07 17:52:50;;;;;;;10.07;2.97;;;;;;;17.97;47.11;102205.13;4920679;29;20048;-70
2021/04/07 17:55:15;;;;;;;7.65;3.03;;;;;;;18.04;47.07;102202.72;4899091;29;20087;-73
2021/04/07 17:57:41;;;;;;;12.73;3.90;;;;;;;18.08;46.94;102188.97;4919266;29;20416;-73
2021/04/07 18:00:07;;;;;;;10.73;3.25;;;;;;;18.12;46.91;102194.78;4905223;29;20048;-71
2021/04/07 18:02:32;;;;;;;7.30;3.08;;;;;;;18.17;47.17;102192.53;4920230;29;20070;-73
2021/04/07 18:04:57;;;;;;;6.75;2.80;;;;;;;18.20;47.08;102186.91;4921029;29;20055;-73
2021/04/07 18:07:23;;;;;;;7.22;3.53;;;;;;;18.24;46.82;102182.94;4926849;29;20052;-72
2021/04/07 18:09:48;;;;;;;9.05;3.72;;;;;;;18.27;47.26;102179.97;4923633;29;20047;-70
2021/04/07 18:12:14;;;;;;;13.95;3.03;;;;;;;18.30;47.48;102187.63;4925733;29;20051;-72
2021/04/07 18:14:40;;;;;;;15.35;5.57;;;;;;;18.34;48.08;102183.69;4921470;29;20032;-74
2021/04/07 18:17:07;;;;;;;13.85;6.43;;;;;;;18.39;48.61;102180.56;4910087;29;20606;-73
2021/04/07 18:19:33;;;;;;;8.82;5.18;;;;;;;18.43;48.83;102179.25;4934646;29;20665;-79
2021/04/07 18:21:59;;;;;;;14.32;6.13;;;;;;;18.45;49.13;102180.78;4926191;29;20048;-72
2021/04/07 18:24:26;;;;;;;12.20;5.07;;;;;;;18.50;49.12;102183.81;4924921;29;20161;-73
2021/04/07 18:26:51;;;;;;;9.70;4.30;;;;;;;18.53;48.90;102177.34;4927927;29;20470;-74
2021/04/07 18:29:17;;;;;;;13.70;4.05;;;;;;;18.55;49.03;102181.50;4928631;29;20047;-74
2021/04/07 18:31:43;;;;;;;12.95;4.38;;;;;;;18.57;48.98;102176.03;4925928;29;20044;-74
2021/04/07 18:34:08;;;;;;;11.02;4.10;;;;;;;18.58;49.10;102166.25;4915997;29;20063;-73
2021/04/07 18:36:34;;;;;;;9.98;4.13;;;;;;;18.59;49.21;102163.41;4921062;29;20032;-74
2021/04/07 18:38:59;;;;;;;11.30;3.58;;;;;;;18.59;48.89;102165.25;4926951;29;20126;-75
2021/04/07 18:41:24;;;;;;;16.60;4.35;;;;;;;18.60;49.07;102174.88;4929294;29;20048;-75
2021/04/07 18:43:51;;;;;;;9.88;4.00;;;;;;;18.60;49.01;102167.75;4927763;29;20423;-75
2021/04/07 18:46:17;;;;;;;8.60;3.97;;;;;;;18.58;49.50;102172.38;4926249;29;20055;-75
2021/04/07 18:48:42;;;;;;;9.40;3.78;;;;;;;18.58;49.79;102168.91;4939950;29;20044;-75
2021/04/07 18:51:08;;;;;;;10.02;3.92;;;;;;;18.58;50.40;102172.38;4933225;29;20297;-80